Time;durP1;ratioP1;P1;durP2;ratioP2;P2;SDS_P1;SDS_P2;PMS_P1;PMS_P2;Temp;Humidity;BMP_temperature;BMP_pressure;BME280_temperature;BME280_humidity;BME280_pressure;Samples;Min_cycle;Max_cycle;Signal;HPM_P1;HPM_P2
2023/08/08 00:02:17;;;;;;;9.63;2.40;;;15.10;99.90;;;15.45;73.16;100421.16;4934655;29;20078;-88
2023/08/08 00:04:45;;;;;;;6.60;2.80;;;15.10;99.90;;;15.41;72.46;100428.06;4942573;29;20500;-88
2023/08/08 00:07:12;;;;;;;5.88;2.80;;;15.10;99.90;;;15.36;72.97;100424.47;4934699;29;20048;-88
2023/08/08 00:09:39;;;;;;;5.82;2.40;;;15.00;99.90;;;15.38;73.11;100417.00;4942449;29;20095;-88
2023/08/08 00:12:08;;;;;;;6.07;2.25;;;15.00;99.90;;;15.36;73.00;100419.91;4934678;29;20047;-88
2023/08/08 00:14:35;;;;;;;4.18;2.10;;;15.00;99.90;;;15.38;72.96;100409.75;4934248;29;20047;-88
2023/08/08 00:17:02;;;;;;;4.53;2.28;;;15.00;99.90;;;15.37;73.15;100415.34;4932539;29;20051;-88
2023/08/08 00:19:31;;;;;;;6.63;2.53;;;15.00;99.90;;;15.39;73.34;100413.25;4935080;29;20046;-88
2023/08/08 00:21:58;;;;;;;6.75;2.58;;;15.00;99.90;;;15.38;72.89;100411.63;4934640;29;20083;-88
2023/08/08 00:24:26;;;;;;;11.45;2.53;;;15.00;99.90;;;15.39;72.91;100411.38;4935786;28;20050;-88
2023/08/08 00:26:53;;;;;;;8.23;2.63;;;15.00;99.90;;;15.34;71.90;100411.28;4949359;29;20135;-88
2023/08/08 00:29:20;;;;;;;6.30;2.35;;;15.00;99.90;;;15.29;72.58;100416.59;4931610;29;20484;-88
2023/08/08 00:31:47;;;;;;;4.20;2.20;;;15.00;99.90;;;15.32;72.98;100418.78;4950293;29;20131;-88
2023/08/08 00:34:15;;;;;;;4.72;2.40;;;15.00;99.90;;;15.34;72.70;100415.88;4932846;29;20428;-88
2023/08/08 00:36:44;;;;;;;5.45;2.40;;;15.00;99.90;;;15.29;72.59;100415.78;4931920;29;20131;-88
2023/08/08 00:39:12;;;;;;;6.75;2.92;;;14.90;99.90;;;15.28;72.36;100417.66;4917395;29;20059;-88
2023/08/08 00:41:39;;;;;;;7.13;2.63;;;14.90;99.90;;;15.27;72.32;100410.63;4933882;29;20448;-88
2023/08/08 00:44:07;;;;;;;5.10;2.30;;;14.90;99.90;;;15.24;72.14;100413.81;4933730;29;20048;-88
2023/08/08 00:46:34;;;;;;;7.35;2.65;;;14.90;99.90;;;15.17;72.14;100415.84;4946139;29;20501;-87
2023/08/08 00:49:02;;;;;;;6.68;2.53;;;14.90;99.90;;;15.19;72.18;100406.50;4944191;29;20776;-88
2023/08/08 00:51:29;;;;;;;6.50;2.25;;;14.90;99.90;;;15.23;72.34;100425.63;4917985;29;20051;-88
2023/08/08 00:53:58;;;;;;;4.65;2.28;;;14.90;99.90;;;15.23;72.23;100414.88;4933913;29;20134;-88
2023/08/08 00:56:25;;;;;;;4.72;2.38;;;14.90;99.90;;;15.20;72.23;100415.34;4931796;29;20115;-88
2023/08/08 00:58:53;;;;;;;6.45;2.30;;;14.90;99.90;;;15.19;72.21;100419.09;4931869;29;20138;-88
2023/08/08 01:01:20;;;;;;;5.85;2.80;;;14.90;99.90;;;15.16;72.15;100411.53;4932985;29;20075;-88
2023/08/08 01:03:48;;;;;;;5.35;2.53;;;14.90;99.90;;;15.14;71.61;100419.03;4946228;29;20104;-88
2023/08/08 01:06:24;;;;;;;5.03;2.38;;;14.90;99.90;;;15.16;72.44;100412.34;4929864;29;20043;-88
2023/08/08 01:08:59;;;;;;;8.85;2.67;;;14.90;99.90;;;15.19;72.80;100409.16;4934048;29;20127;-88
2023/08/08 01:11:28;;;;;;;5.50;2.40;;;14.90;99.90;;;15.10;72.18;100402.56;4934137;29;20072;-88
2023/08/08 01:13:56;;;;;;;8.15;2.67;;;14.80;99.90;;;15.04;72.22;100408.09;4949885;28;20052;-88
2023/08/08 01:16:25;;;;;;;4.85;2.40;;;14.80;99.90;;;15.09;72.86;100400.13;4925389;29;20554;-88
2023/08/08 01:18:54;;;;;;;6.03;2.50;;;14.80;99.90;;;15.11;72.64;100406.06;4934035;29;20044;-88
2023/08/08 01:21:21;;;;;;;6.05;2.60;;;14.80;99.90;;;15.12;72.56;100400.44;4949548;29;20046;-88
2023/08/08 01:24:16;;;;;;;12.82;2.40;;;14.80;99.90;;;15.10;72.40;100399.88;4949077;28;20040;-88
2023/08/08 01:26:43;;;;;;;9.68;2.63;;;14.80;99.90;;;15.13;72.67;100398.59;4949287;29;20102;-88
2023/08/08 01:29:11;;;;;;;4.50;2.17;;;14.80;99.90;;;15.12;72.53;100389.69;4949305;28;20083;-88
2023/08/08 01:31:38;;;;;;;5.68;2.63;;;14.80;99.90;;;15.09;72.48;100392.88;4949806;28;20127;-88
2023/08/08 01:34:06;;;;;;;5.63;2.50;;;14.80;99.90;;;15.10;72.42;100389.13;4930998;29;20151;-89
2023/08/08 01:36:40;;;;;;;4.72;2.67;;;14.80;99.90;;;15.12;72.11;100378.94;4935366;29;20083;-88
2023/08/08 01:39:14;;;;;;;10.90;3.03;;;14.80;99.90;;;15.10;71.88;100382.94;4949463;29;20048;-88
2023/08/08 01:41:47;;;;;;;7.50;2.60;;;14.80;99.90;;;15.09;72.04;100386.69;4932054;29;20571;-88
2023/08/08 01:44:15;;;;;;;5.93;2.78;;;14.80;99.90;;;15.10;72.25;100391.81;4942113;29;20092;-88
2023/08/08 01:46:43;;;;;;;7.72;2.90;;;14.80;99.90;;;15.09;71.83;100392.06;4933349;29;20048;-88
2023/08/08 01:49:10;;;;;;;7.55;2.95;;;14.80;99.90;;;15.06;71.57;100387.19;4933050;29;20492;-88
2023/08/08 01:51:38;;;;;;;8.75;3.22;;;14.80;99.90;;;14.94;71.48;100388.06;4936049;29;20130;-88
2023/08/08 01:54:05;;;;;;;8.68;3.10;;;14.70;99.90;;;14.92;72.53;100384.78;4927954;29;20094;-88
2023/08/08 01:56:33;;;;;;;8.07;2.80;;;14.70;99.90;;;14.97;73.02;100383.25;4948962;29;20079;-88
2023/08/08 01:59:03;;;;;;;7.68;2.75;;;14.70;99.90;;;15.03;73.27;100382.28;4923974;29;20042;-88
2023/08/08 02:01:30;;;;;;;9.65;2.60;;;14.70;99.90;;;14.96;72.34;100378.94;4939233;29;20075;-88
2023/08/08 02:03:57;;;;;;;6.70;3.00;;;14.70;99.90;;;15.00;73.00;100375.53;4949733;28;20110;-88
2023/08/08 02:06:25;;;;;;;7.93;2.88;;;14.70;99.90;;;14.97;72.14;100377.88;4952771;29;20035;-88
2023/08/08 02:08:52;;;;;;;9.25;2.72;;;14.70;99.90;;;14.98;72.43;100366.06;4952691;28;20716;-88
2023/08/08 02:11:21;;;;;;;5.15;2.28;;;14.70;99.90;;;14.99;72.23;100348.94;4934688;29;20437;-88
2023/08/08 02:13:50;;;;;;;7.43;2.75;;;14.70;99.90;;;14.98;73.09;100348.09;4936718;29;20433;-88
2023/08/08 02:16:19;;;;;;;5.07;2.60;;;14.70;99.90;;;14.99;72.63;100336.31;4952250;28;20090;-88
2023/08/08 02:18:46;;;;;;;7.55;2.58;;;14.70;99.90;;;14.99;72.39;100344.38;4950270;29;20048;-88
2023/08/08 02:21:14;;;;;;;5.15;2.40;;;14.70;99.90;;;14.92;72.55;100344.50;4944960;29;20048;-88
2023/08/08 02:23:42;;;;;;;11.65;3.58;;;14.70;99.90;;;14.89;72.53;100353.06;4952085;29;20801;-88
2023/08/08 02:26:09;;;;;;;10.50;2.83;;;14.60;99.90;;;14.89;72.79;100344.19;4936599;29;20043;-88
2023/08/08 02:28:36;;;;;;;10.32;2.92;;;14.60;99.90;;;14.89;72.89;100354.94;4936537;29;20092;-88
2023/08/08 02:31:04;;;;;;;7.40;2.55;;;14.60;99.90;;;14.89;73.02;100366.50;4931114;29;20051;-88
2023/08/08 02:33:32;;;;;;;7.43;2.53;;;14.60;99.90;;;14.93;73.00;100356.06;4934600;29;20130;-88
2023/08/08 02:36:00;;;;;;;7.75;2.63;;;14.60;99.90;;;14.96;72.70;100357.47;4925862;29;20070;-88
2023/08/08 02:38:27;;;;;;;8.65;2.75;;;14.70;99.90;;;14.92;72.75;100355.25;4949115;29;20134;-89
2023/08/08 02:40:54;;;;;;;5.78;2.50;;;14.70;99.90;;;14.93;72.68;100362.28;4947670;28;20044;-88
2023/08/08 02:43:22;;;;;;;10.00;3.10;;;14.60;99.90;;;14.90;72.92;100360.06;4947629;28;20047;-88
2023/08/08 02:45:50;;;;;;;7.90;2.83;;;14.60;99.90;;;14.89;72.82;100355.75;4934541;29;20092;-88
2023/08/08 02:48:18;;;;;;;8.05;2.90;;;14.60;99.90;;;14.90;73.22;100351.19;4935635;29;20039;-88
2023/08/08 02:50:47;;;;;;;5.78;2.80;;;14.60;99.90;;;14.87;72.87;100351.66;4943053;29;20046;-88
2023/08/08 02:53:15;;;;;;;5.97;2.75;;;14.60;99.90;;;14.89;73.21;100347.69;4935381;29;20130;-88
2023/08/08 02:55:46;;;;;;;5.75;2.88;;;14.70;99.90;;;14.90;73.04;100354.69;4934299;29;20791;-88
2023/08/08 02:58:14;;;;;;;7.47;2.55;;;14.60;99.90;;;14.92;73.15;100349.88;4933058;29;20052;-88
2023/08/08 03:00:41;;;;;;;7.10;2.90;;;14.70;99.90;;;14.94;73.40;100347.78;4954814;28;20047;-88
2023/08/08 03:03:13;;;;;;;5.95;2.60;;;14.70;99.90;;;14.95;73.39;100348.59;4935729;29;20062;-88
2023/08/08 03:05:41;;;;;;;6.63;2.90;;;14.70;99.90;;;14.97;73.63;100342.97;4952870;28;20063;-88
2023/08/08 03:08:10;;;;;;;8.10;2.95;;;14.70;99.90;;;15.02;73.57;100345.75;4942913;29;20480;-88
2023/08/08 03:10:37;;;;;;;10.45;2.70;;;14.70;99.90;;;14.98;73.89;100331.16;4936477;29;20095;-88
2023/08/08 03:13:05;;;;;;;9.05;3.33;;;14.70;99.90;;;14.90;74.37;100329.72;4950749;28;20103;-88
2023/08/08 03:15:33;;;;;;;7.07;3.10;;;14.70;99.90;;;14.94;74.80;100333.53;4956835;28;20141;-88
2023/08/08 03:18:03;;;;;;;5.55;2.80;;;14.70;99.90;;;14.87;74.57;100327.50;4926009;29;20440;-88
2023/08/08 03:20:31;;;;;;;9.02;3.22;;;14.70;99.90;;;14.83;75.22;100335.22;4923003;29;20052;-88
2023/08/08 03:22:58;;;;;;;7.80;3.40;;;14.60;99.90;;;14.88;75.80;100337.19;4965655;28;20028;-88
2023/08/08 03:25:27;;;;;;;8.52;3.15;;;14.60;99.90;;;14.89;76.04;100338.84;4955861;29;20028;-88
2023/08/08 03:27:54;;;;;;;8.73;3.20;;;14.60;99.90;;;14.80;75.71;100346.47;4960472;29;20039;-88
2023/08/08 03:30:22;;;;;;;6.65;3.13;;;14.60;99.90;;;14.79;76.60;100350.22;4971519;28;20054;-88
2023/08/08 03:32:50;;;;;;;6.47;3.28;;;14.60;99.90;;;14.83;76.95;100350.53;4933432;29;20044;-88
2023/08/08 03:35:17;;;;;;;7.25;3.22;;;14.60;99.90;;;14.87;77.18;100346.28;4930466;29;20393;-88
2023/08/08 03:37:45;;;;;;;9.35;3.38;;;14.60;99.90;;;14.87;77.20;100349.78;4948750;29;20126;-88
2023/08/08 03:40:14;;;;;;;12.18;3.30;;;14.60;99.90;;;14.83;77.33;100340.59;4951565;29;20535;-88
2023/08/08 03:42:43;;;;;;;7.10;3.35;;;14.60;99.90;;;14.87;77.49;100330.19;4934992;29;20511;-88
2023/08/08 03:45:11;;;;;;;7.75;3.67;;;14.60;99.90;;;14.90;77.49;100327.84;4929953;29;20055;-88
2023/08/08 03:47:39;;;;;;;7.32;3.60;;;14.60;99.90;;;14.93;77.65;100329.22;4943521;28;20150;-88
2023/08/08 03:50:08;;;;;;;8.35;3.20;;;14.60;99.90;;;14.92;78.05;100336.44;4951669;29;20052;-88
2023/08/08 03:52:37;;;;;;;12.98;3.85;;;14.60;99.90;;;14.91;78.25;100331.34;4934376;29;20059;-88
2023/08/08 03:55:05;;;;;;;8.20;3.70;;;14.60;99.90;;;14.88;78.42;100331.81;4936022;29;20040;-88
2023/08/08 03:57:33;;;;;;;6.45;3.03;;;14.60;99.90;;;14.88;78.29;100329.97;4950426;28;20127;-88
2023/08/08 04:00:08;;;;;;;10.45;3.80;;;14.60;99.90;;;14.92;78.64;100333.75;4926481;29;20052;-91
2023/08/08 04:02:41;;;;;;;;;;;14.60;99.90;;;14.92;78.57;100325.72;4936278;29;20055;-90
2023/08/08 04:05:12;;;;;;;7.40;3.08;;;14.60;99.90;;;14.88;78.58;100324.59;4934135;29;19924;-90
2023/08/08 04:07:39;;;;;;;7.97;3.27;;;14.60;99.90;;;14.82;78.85;100317.50;4934400;29;20138;-90
2023/08/08 04:10:08;;;;;;;10.85;3.80;;;14.50;99.90;;;14.79;78.92;100322.56;4931114;29;20039;-90
2023/08/08 04:12:36;;;;;;;6.47;3.17;;;14.50;99.90;;;14.77;79.06;100336.19;4950664;29;21015;-90
2023/08/08 04:15:06;;;;;;;8.27;3.53;;;14.50;99.90;;;14.81;79.43;100331.16;4938828;29;20036;-90
2023/08/08 04:17:33;;;;;;;10.60;3.55;;;14.50;99.90;;;14.83;79.47;100332.53;4938847;28;20520;-90
2023/08/08 04:20:01;;;;;;;7.55;3.45;;;14.60;99.90;;;14.78;79.50;100320.91;4930926;29;20119;-90
2023/08/08 04:22:28;;;;;;;9.20;4.25;;;14.50;99.90;;;14.75;79.69;100316.03;4943297;28;20054;-90
2023/08/08 04:24:57;;;;;;;9.65;4.00;;;14.50;99.90;;;14.77;79.66;100311.22;4934160;29;20519;-90
2023/08/08 04:27:24;;;;;;;8.20;3.90;;;14.50;99.90;;;14.79;79.89;100314.50;4950158;28;20158;-90
2023/08/08 04:29:52;;;;;;;10.05;3.80;;;14.50;99.90;;;14.78;80.01;100320.91;4930244;29;20107;-90
2023/08/08 04:32:21;;;;;;;8.15;3.65;;;14.50;99.90;;;14.81;80.02;100321.22;4946511;29;20055;-88
2023/08/08 04:34:49;;;;;;;8.52;3.92;;;14.50;99.90;;;14.76;80.29;100314.97;4936026;29;20047;-88
2023/08/08 04:37:16;;;;;;;7.03;3.60;;;14.50;99.90;;;14.76;80.49;100326.53;4934052;29;20170;-88
2023/08/08 04:39:44;;;;;;;8.07;3.60;;;14.60;99.90;;;14.81;80.74;100325.78;4949419;29;20561;-88
2023/08/08 04:42:11;;;;;;;12.57;3.97;;;14.50;99.90;;;14.83;80.63;100326.34;4935023;28;20771;-88
2023/08/08 04:44:38;;;;;;;10.13;3.70;;;14.60;99.90;;;14.80;80.92;100322.28;4927545;29;20067;-88
2023/08/08 04:47:06;;;;;;;9.13;4.10;;;14.60;99.90;;;14.83;80.81;100315.63;4929419;29;20131;-88
2023/08/08 04:49:35;;;;;;;12.90;4.38;;;14.60;99.90;;;14.73;81.13;100320.81;4950672;29;20043;-88
2023/08/08 04:52:02;;;;;;;12.95;4.35;;;14.50;99.90;;;14.72;81.44;100319.19;4934862;29;20131;-88
2023/08/08 04:54:30;;;;;;;12.25;4.20;;;14.50;99.90;;;14.72;81.82;100311.94;4951568;29;20779;-88
2023/08/08 04:56:58;;;;;;;7.60;4.07;;;14.50;99.90;;;14.79;81.60;100299.19;4931560;29;20044;-88
2023/08/08 04:59:28;;;;;;;14.18;4.32;;;14.60;99.90;;;14.81;81.52;100299.75;4935073;29;20055;-88
2023/08/08 05:01:55;;;;;;;10.43;4.88;;;14.60;99.90;;;14.86;81.51;100307.09;4924169;29;20119;-88
2023/08/08 05:04:22;;;;;;;10.50;5.10;;;14.60;99.90;;;14.88;81.30;100299.59;4948756;28;20063;-88
2023/08/08 05:06:51;;;;;;;13.18;5.15;;;14.60;99.90;;;14.87;81.40;100300.66;4937036;29;20044;-88
2023/08/08 05:09:20;;;;;;;12.05;5.43;;;14.60;99.90;;;14.88;81.58;100310.31;4947395;29;20048;-88
2023/08/08 05:11:47;;;;;;;14.60;5.75;;;14.70;99.90;;;14.85;81.88;100295.53;4951448;28;20476;-87
2023/08/08 05:14:15;;;;;;;13.45;5.70;;;14.60;99.90;;;14.82;82.16;100306.75;4930143;29;20043;-88
2023/08/08 05:16:42;;;;;;;17.02;6.28;;;14.60;99.90;;;14.83;82.00;100304.88;4933266;29;20047;-88
2023/08/08 05:19:09;;;;;;;15.25;6.65;;;14.60;99.90;;;14.81;82.60;100310.50;4928207;29;20206;-88
2023/08/08 05:21:37;;;;;;;16.45;6.90;;;14.60;99.90;;;14.83;82.39;100307.56;4942765;28;20056;-88
2023/08/08 05:24:07;;;;;;;13.20;6.45;;;14.60;99.90;;;14.88;82.78;100324.59;4934094;29;20404;-88
2023/08/08 05:26:34;;;;;;;14.35;7.32;;;14.70;99.90;;;14.83;82.99;100310.25;4957463;28;20479;-88
2023/08/08 05:29:02;;;;;;;15.65;7.25;;;14.60;99.90;;;14.82;83.16;100317.50;4928259;29;20660;-89
2023/08/08 05:31:29;;;;;;;22.05;7.75;;;14.60;99.90;;;14.77;83.12;100316.59;4934051;29;20055;-88
2023/08/08 05:33:57;;;;;;;14.18;6.93;;;14.60;99.90;;;14.81;83.38;100312.38;4949812;29;20073;-88
2023/08/08 05:36:24;;;;;;;17.08;7.70;;;14.70;99.90;;;14.73;83.81;100310.88;4950147;29;20074;-88
2023/08/08 05:38:51;;;;;;;13.23;6.75;;;14.60;99.90;;;14.77;83.68;100308.53;4950368;28;20099;-88
2023/08/08 05:41:20;;;;;;;15.82;8.00;;;14.60;99.90;;;14.79;83.94;100307.25;4931372;29;20044;-88
2023/08/08 05:43:48;;;;;;;16.48;7.40;;;14.70;99.90;;;14.88;83.85;100310.31;4953459;29;20042;-89
2023/08/08 05:46:15;;;;;;;15.82;7.43;;;14.70;99.90;;;14.89;83.97;100311.97;4937108;29;20100;-87
2023/08/08 05:48:42;;;;;;;20.38;8.75;;;14.70;99.90;;;14.89;84.00;100311.97;4935870;29;20056;-87
2023/08/08 05:51:09;;;;;;;18.33;7.85;;;14.70;99.90;;;14.89;84.49;100310.09;4952935;29;20162;-88
2023/08/08 05:53:38;;;;;;;16.85;8.90;;;14.70;99.90;;;14.90;84.09;100314.41;4936734;29;20143;-87
2023/08/08 05:56:05;;;;;;;18.70;8.85;;;14.80;99.90;;;14.92;84.15;100324.91;4935196;29;20143;-89
2023/08/08 05:58:34;;;;;;;16.17;8.27;;;14.80;99.90;;;14.89;84.44;100323.53;4936826;29;20043;-89
2023/08/08 06:01:02;;;;;;;15.88;8.70;;;14.80;99.90;;;14.90;84.36;100324.34;4936089;29;20040;-88
2023/08/08 06:03:31;;;;;;;22.27;10.38;;;14.80;99.90;;;14.90;84.70;100322.47;4935058;29;20043;-90
2023/08/08 06:05:59;;;;;;;23.30;9.95;;;14.80;99.90;;;14.86;84.75;100325.88;4949253;29;20051;-88
2023/08/08 06:08:26;;;;;;;21.58;9.65;;;14.80;99.90;;;14.90;84.73;100321.66;4936162;29;20489;-88
2023/08/08 06:10:53;;;;;;;20.30;9.85;;;14.80;99.90;;;14.90;84.75;100329.72;4932957;29;20071;-88
2023/08/08 06:13:21;;;;;;;21.48;10.45;;;14.80;99.90;;;14.82;84.66;100325.53;4952480;28;20051;-88
2023/08/08 06:15:49;;;;;;;17.55;10.07;;;14.80;99.90;;;14.87;85.15;100330.19;4935030;29;20071;-88
2023/08/08 06:18:17;;;;;;;21.08;10.05;;;14.80;99.90;;;14.94;85.45;100337.03;4932995;29;20122;-88
2023/08/08 06:20:45;;;;;;;24.67;9.55;;;14.90;99.90;;;14.91;85.19;100332.16;4936468;29;20532;-88
2023/08/08 06:23:12;;;;;;;19.83;9.48;;;14.90;99.90;;;14.92;85.57;100333.75;4936809;29;20087;-88
2023/08/08 06:25:39;;;;;;;20.27;10.52;;;14.90;99.90;;;14.94;85.08;100336.22;4934854;29;20740;-87
2023/08/08 06:28:07;;;;;;;24.15;10.20;;;14.90;99.90;;;14.88;86.17;100332.66;4936434;29;20874;-87
2023/08/08 06:30:35;;;;;;;22.20;9.63;;;14.90;99.90;;;14.97;86.10;100329.53;4935154;29;20044;-88
2023/08/08 06:33:04;;;;;;;20.75;10.10;;;14.90;99.90;;;14.97;85.61;100340.28;4935881;28;20102;-87
2023/08/08 06:35:31;;;;;;;21.15;10.73;;;15.00;99.90;;;14.98;85.80;100341.91;4934428;29;20044;-87
2023/08/08 06:37:58;;;;;;;21.77;9.18;;;14.90;99.90;;;15.00;85.74;100339.81;4938373;29;20138;-87
2023/08/08 06:40:25;;;;;;;23.25;9.43;;;14.90;99.90;;;15.05;85.25;100348.75;4952436;28;20131;-87
2023/08/08 06:42:53;;;;;;;19.50;10.60;;;15.00;99.90;;;15.07;85.29;100341.25;4950501;28;20077;-87
2023/08/08 06:45:20;;;;;;;25.50;10.68;;;15.00;99.90;;;15.03;85.80;100347.38;4934281;29;20449;-87
2023/08/08 06:47:48;;;;;;;26.08;11.77;;;15.00;99.90;;;15.06;85.85;100344.19;4935299;29;20731;-87
2023/08/08 06:50:17;;;;;;;24.67;11.75;;;15.10;99.90;;;15.09;85.90;100343.72;4939216;29;20111;-87
2023/08/08 06:52:45;;;;;;;22.60;11.95;;;15.10;99.90;;;15.16;86.15;100344.38;4935312;29;20064;-87
2023/08/08 06:55:12;;;;;;;24.08;12.55;;;15.20;99.90;;;15.24;86.89;100343.16;4935678;29;20875;-88
2023/08/08 06:57:39;;;;;;;25.80;13.30;;;15.30;99.90;;;15.31;86.58;100339.22;4935534;29;20042;-87
2023/08/08 07:00:08;;;;;;;25.05;12.93;;;15.30;99.90;;;15.40;87.17;100335.06;4929833;29;20114;-87
2023/08/08 07:02:36;;;;;;;28.30;14.18;;;15.50;99.90;;;15.42;85.65;100337.50;4935242;29;20040;-87
2023/08/08 07:05:04;;;;;;;21.88;12.65;;;15.50;99.90;;;15.33;85.07;100341.69;4946155;29;20043;-87
2023/08/08 07:07:33;;;;;;;22.20;12.60;;;15.40;99.90;;;15.28;85.97;100339.72;4935516;29;20047;-87
2023/08/08 07:10:00;;;;;;;25.40;13.65;;;15.40;99.90;;;15.27;85.77;100337.25;4933357;29;20130;-87
2023/08/08 07:12:28;;;;;;;28.67;14.05;;;15.30;99.90;;;15.33;86.22;100334.44;4935528;29;20123;-87
2023/08/08 07:14:55;;;;;;;31.08;13.38;;;15.40;99.90;;;15.40;86.32;100328.88;4928511;29;20044;-87
2023/08/08 07:17:22;;;;;;;27.42;14.65;;;15.50;99.90;;;15.45;85.82;100323.56;4932112;29;20054;-87
2023/08/08 07:19:50;;;;;;;24.83;13.55;;;15.50;99.90;;;15.46;85.52;100325.19;4908205;29;20052;-88
2023/08/08 07:22:17;;;;;;;27.17;11.95;;;15.60;99.90;;;15.50;85.08;100328.22;4939218;29;20047;-89
2023/08/08 07:24:46;;;;;;;24.48;12.93;;;15.60;99.90;;;15.53;85.22;100325.84;4935876;29;20058;-91
2023/08/08 07:27:13;;;;;;;20.90;11.73;;;15.70;99.90;;;15.63;85.22;100328.72;4935485;29;20047;-89
2023/08/08 07:29:41;;;;;;;21.83;11.95;;;15.80;99.90;;;15.74;85.49;100321.59;4951331;29;20067;-88
2023/08/08 07:32:09;;;;;;;23.00;12.40;;;15.90;99.90;;;15.83;85.46;100322.78;4936274;29;20039;-88
2023/08/08 07:34:36;;;;;;;26.40;12.30;;;16.00;99.90;;;15.88;84.89;100325.53;4952096;29;20476;-89
2023/08/08 07:37:04;;;;;;;24.42;12.68;;;16.10;99.90;;;15.95;83.87;100314.59;4965504;29;20033;-88
2023/08/08 07:39:32;;;;;;;21.85;12.15;;;16.20;99.90;;;15.99;83.88;100315.72;4958308;29;20056;-87
2023/08/08 07:42:00;;;;;;;18.90;11.25;;;16.20;99.90;;;16.01;83.71;100315.50;4953194;28;20032;-88
2023/08/08 07:44:28;;;;;;;21.67;10.95;;;16.20;99.90;;;16.03;83.36;100306.09;4956898;28;20055;-88
2023/08/08 07:46:55;;;;;;;19.42;11.07;;;16.30;99.90;;;16.21;83.55;100310.34;4942554;29;20043;-88
2023/08/08 07:49:22;;;;;;;19.90;10.80;;;16.40;99.90;;;16.31;82.74;100313.13;4950336;29;20040;-87
2023/08/08 07:51:49;;;;;;;17.40;9.73;;;16.60;99.90;;;16.29;81.08;100309.88;4931248;29;20078;-87
2023/08/08 07:54:17;;;;;;;21.88;9.80;;;16.50;99.90;;;16.29;80.76;100309.06;4937253;29;20143;-87
2023/08/08 07:56:44;;;;;;;22.08;8.88;;;16.60;99.90;;;16.33;80.82;100312.88;4934219;29;20056;-88
2023/08/08 07:59:13;;;;;;;18.42;8.50;;;16.60;99.90;;;16.34;80.35;100311.81;4933619;29;20055;-88
2023/08/08 08:01:41;;;;;;;18.63;8.35;;;16.60;99.90;;;16.29;81.05;100303.66;4950881;28;20035;-88
2023/08/08 08:04:08;;;;;;;16.05;7.28;;;16.60;99.90;;;16.38;80.40;100307.53;4930610;29;20139;-88
2023/08/08 08:06:35;;;;;;;13.77;7.30;;;16.70;99.90;;;16.53;80.09;100314.97;4935500;29;20051;-88
2023/08/08 08:09:03;;;;;;;17.63;8.00;;;16.80;99.90;;;16.72;80.53;100313.56;4934363;29;20046;-88
2023/08/08 08:11:30;;;;;;;13.40;6.88;;;17.00;99.90;;;16.79;80.44;100310.66;4933660;29;20102;-88
2023/08/08 08:13:58;;;;;;;13.45;7.13;;;17.10;99.90;;;16.79;80.51;100306.09;4918888;29;20101;-88
2023/08/08 08:16:26;;;;;;;18.63;7.15;;;17.10;99.90;;;16.85;78.79;100302.38;4927061;29;20079;-88
2023/08/08 08:18:54;;;;;;;17.35;6.80;;;17.20;99.90;;;16.97;80.01;100303.00;4951898;29;20055;-88
2023/08/08 08:21:21;;;;;;;13.75;6.50;;;17.30;99.90;;;16.94;77.92;100306.22;4936859;29;20068;-88
2023/08/08 08:23:49;;;;;;;18.00;7.05;;;17.30;99.90;;;16.93;79.24;100307.28;4924389;29;20132;-88
2023/08/08 08:26:16;;;;;;;16.13;6.13;;;17.30;99.90;;;16.93;78.67;100310.00;4945681;28;20071;-87
2023/08/08 08:28:43;;;;;;;16.65;5.85;;;17.30;99.90;;;16.92;78.36;100305.66;4933832;28;20103;-88
2023/08/08 08:31:11;;;;;;;14.02;5.93;;;17.20;99.90;;;16.90;80.05;100302.41;4931176;29;20048;-88
2023/08/08 08:33:39;;;;;;;14.55;5.30;;;17.20;99.90;;;16.89;78.76;100308.06;4931238;29;20048;-88
2023/08/08 08:36:07;;;;;;;15.38;5.38;;;17.20;99.90;;;16.95;79.06;100305.16;4933995;29;20762;-87
2023/08/08 08:38:35;;;;;;;14.30;5.53;;;17.20;99.90;;;17.08;77.95;100314.69;4926266;29;20052;-88
2023/08/08 08:41:04;;;;;;;15.60;4.60;;;17.40;99.90;;;17.13;77.18;100300.41;4927465;29;20134;-88
2023/08/08 08:43:32;;;;;;;12.18;4.78;;;17.50;99.90;;;17.27;77.55;100306.16;4946569;29;20419;-88
2023/08/08 08:46:02;;;;;;;12.63;5.55;;;17.60;99.90;;;17.33;77.49;100303.28;4934541;29;20043;-88
2023/08/08 08:48:30;;;;;;;11.93;5.30;;;17.70;99.90;;;17.36;75.79;100286.56;4946219;28;20054;-88
2023/08/08 08:50:59;;;;;;;13.60;4.97;;;17.70;99.90;;;17.33;74.83;100294.38;4926047;29;20036;-88
2023/08/08 08:53:26;;;;;;;11.45;5.15;;;17.70;99.90;;;17.33;74.68;100302.47;4948663;28;20048;-88
2023/08/08 08:55:56;;;;;;;11.43;4.80;;;17.70;99.90;;;17.26;73.10;100302.66;4933853;29;20469;-88
2023/08/08 08:58:25;;;;;;;8.65;4.22;;;17.60;99.90;;;17.25;73.96;100301.06;4934975;29;20050;-88
2023/08/08 09:00:53;;;;;;;15.35;4.05;;;17.60;99.90;;;17.37;75.86;100308.94;4945851;29;20504;-88
2023/08/08 09:03:20;;;;;;;11.13;4.30;;;17.70;99.90;;;17.45;74.20;100306.56;4923441;29;20043;-88
2023/08/08 09:05:48;;;;;;;8.57;4.13;;;17.80;99.90;;;17.43;73.70;100311.41;4934966;29;20067;-88
2023/08/08 09:08:18;;;;;;;9.95;3.78;;;17.80;99.90;;;17.43;73.23;100303.31;4934060;29;20048;-88
2023/08/08 09:10:45;;;;;;;9.00;4.00;;;17.80;99.90;;;17.45;74.76;100301.16;4949362;29;20044;-88
2023/08/08 09:13:13;;;;;;;10.25;4.05;;;17.80;99.90;;;17.55;73.09;100292.31;4928574;29;20131;-88
2023/08/08 09:15:40;;;;;;;11.50;4.38;;;17.90;99.90;;;17.70;72.79;100287.00;4925595;29;20444;-88
2023/08/08 09:18:08;;;;;;;10.73;4.07;;;18.10;99.90;;;17.67;71.18;100289.44;4949537;29;20070;-88
2023/08/08 09:20:36;;;;;;;10.98;3.90;;;18.10;99.90;;;17.68;73.24;100299.97;4933246;28;20058;-88
2023/08/08 09:23:03;;;;;;;9.68;3.80;;;18.10;99.90;;;17.59;71.16;100290.75;4934779;29;20047;-88
2023/08/08 09:25:32;;;;;;;9.90;3.90;;;18.00;99.90;;;17.63;71.97;100293.72;4933914;29;20039;-88
2023/08/08 09:28:02;;;;;;;10.13;3.90;;;18.00;99.90;;;17.59;70.43;100289.94;4934404;29;20048;-88
2023/08/08 09:30:29;;;;;;;12.35;3.85;;;17.90;99.90;;;17.61;71.22;100290.47;4947153;28;20138;-88
2023/08/08 09:33:00;;;;;;;9.18;3.42;;;18.00;99.90;;;17.64;72.05;100298.03;4949277;29;20044;-88
2023/08/08 09:35:29;;;;;;;9.52;4.00;;;18.00;99.90;;;17.57;70.78;100295.59;4935251;29;20055;-88
2023/08/08 09:37:57;;;;;;;11.10;4.00;;;17.90;99.90;;;17.51;70.80;100293.91;4933552;29;20048;-88
2023/08/08 09:40:24;;;;;;;10.60;3.55;;;17.80;99.90;;;17.41;71.41;100291.16;4932960;29;20036;-88
2023/08/08 09:42:54;;;;;;;11.57;3.75;;;17.70;99.90;;;17.29;69.95;100290.56;4935122;29;20111;-88
2023/08/08 09:45:22;;;;;;;9.57;3.33;;;17.50;99.90;;;17.25;70.85;100295.66;4934467;29;20078;-88
2023/08/08 09:47:52;;;;;;;8.80;3.40;;;17.50;99.90;;;17.29;71.97;100296.78;4931951;29;20039;-88
2023/08/08 09:50:20;;;;;;;11.02;3.28;;;17.50;99.90;;;17.27;72.23;100296.19;4933405;29;20504;-89
2023/08/08 09:52:48;;;;;;;16.38;4.38;;;17.50;99.90;;;17.25;72.56;100301.06;4929591;29;20412;-88
2023/08/08 09:55:16;;;;;;;14.45;4.60;;;17.50;99.90;;;17.26;71.55;100308.06;4941068;28;20758;-88
2023/08/08 09:57:44;;;;;;;15.00;4.30;;;17.50;99.90;;;17.24;70.61;100307.53;4936179;29;20134;-88
2023/08/08 10:00:16;;;;;;;12.57;3.92;;;17.50;99.90;;;17.28;70.88;100297.03;4940834;29;20460;-89
2023/08/08 10:02:48;;;;;;;15.10;4.07;;;17.50;99.90;;;17.30;69.91;100301.09;4940836;29;20052;-88
2023/08/08 10:05:16;;;;;;;12.32;4.18;;;17.50;99.90;;;17.38;71.13;100292.50;4925406;29;20127;-88
2023/08/08 10:07:44;;;;;;;10.82;4.15;;;17.60;99.90;;;17.45;71.25;100298.47;4935532;28;22416;-89
2023/08/08 10:10:12;;;;;;;12.32;3.70;;;17.70;99.90;;;17.50;70.96;100290.41;4937226;28;20065;-88
2023/08/08 10:12:41;;;;;;;10.75;3.63;;;17.80;99.90;;;17.55;70.26;100286.13;4931462;29;20086;-88